sensor_id;sensor_type;location;lat;lon;timestamp;pressure;altitude;pressure_sealevel;temperature;humidity
70027;BME280;57506;50.092;15.804;2023-12-29T00:01:20;99099.84;;;2.02;100.00
70027;BME280;57506;50.092;15.804;2023-12-29T00:03:46;99092.13;;;2.18;100.00
70027;BME280;57506;50.092;15.804;2023-12-29T00:06:11;99089.13;;;2.40;100.00
70027;BME280;57506;50.092;15.804;2023-12-29T00:08:37;99100.22;;;2.63;100.00
70027;BME280;57506;50.092;15.804;2023-12-29T00:11:02;99086.22;;;2.71;100.00
70027;BME280;57506;50.092;15.804;2023-12-29T00:13:28;99088.38;;;2.85;100.00
70027;BME280;57506;50.092;15.804;2023-12-29T00:15:54;99076.91;;;2.85;100.00
70027;BME280;57506;50.092;15.804;2023-12-29T00:18:20;99093.00;;;3.10;100.00
70027;BME280;57506;50.092;15.804;2023-12-29T00:20:46;99085.13;;;3.19;100.00
70027;BME280;57506;50.092;15.804;2023-12-29T00:23:12;99100.03;;;3.29;100.00
70027;BME280;57506;50.092;15.804;2023-12-29T00:25:38;99091.75;;;3.32;100.00
70027;BME280;57506;50.092;15.804;2023-12-29T00:28:05;99092.22;;;3.45;100.00
70027;BME280;57506;50.092;15.804;2023-12-29T00:30:31;99080.56;;;3.46;100.00
70027;BME280;57506;50.092;15.804;2023-12-29T00:32:56;99086.06;;;3.63;100.00
70027;BME280;57506;50.092;15.804;2023-12-29T00:35:22;99105.94;;;3.86;100.00
70027;BME280;57506;50.092;15.804;2023-12-29T00:37:49;99097.25;;;3.84;100.00
70027;BME280;57506;50.092;15.804;2023-12-29T00:40:15;99071.84;;;3.72;100.00
70027;BME280;57506;50.092;15.804;2023-12-29T00:42:40;99065.34;;;3.74;100.00
70027;BME280;57506;50.092;15.804;2023-12-29T00:45:06;99099.53;;;3.97;100.00
70027;BME280;57506;50.092;15.804;2023-12-29T00:47:33;99044.19;;;3.73;100.00
70027;BME280;57506;50.092;15.804;2023-12-29T00:50:00;99064.88;;;3.97;100.00
70027;BME280;57506;50.092;15.804;2023-12-29T00:52:27;99065.41;;;4.00;100.00
70027;BME280;57506;50.092;15.804;2023-12-29T00:54:52;99063.41;;;4.02;100.00
70027;BME280;57506;50.092;15.804;2023-12-29T00:57:18;99054.72;;;4.00;100.00
70027;BME280;57506;50.092;15.804;2023-12-29T00:59:46;99076.63;;;4.12;100.00
70027;BME280;57506;50.092;15.804;2023-12-29T01:02:12;99071.31;;;4.12;100.00
70027;BME280;57506;50.092;15.804;2023-12-29T01:04:38;99028.47;;;3.88;100.00
70027;BME280;57506;50.092;15.804;2023-12-29T01:07:06;99051.28;;;4.08;100.00
70027;BME280;57506;50.092;15.804;2023-12-29T01:09:32;99042.94;;;4.03;100.00
70027;BME280;57506;50.092;15.804;2023-12-29T01:11:57;99076.72;;;4.20;100.00
70027;BME280;57506;50.092;15.804;2023-12-29T01:14:23;99072.06;;;4.22;100.00
70027;BME280;57506;50.092;15.804;2023-12-29T01:16:48;99056.38;;;4.19;100.00
70027;BME280;57506;50.092;15.804;2023-12-29T01:19:14;99057.78;;;4.31;100.00
70027;BME280;57506;50.092;15.804;2023-12-29T01:21:39;99046.72;;;4.26;100.00
70027;BME280;57506;50.092;15.804;2023-12-29T01:24:05;99000.50;;;3.92;100.00
70027;BME280;57506;50.092;15.804;2023-12-29T01:26:37;99056.72;;;4.24;100.00
70027;BME280;57506;50.092;15.804;2023-12-29T01:29:04;99032.16;;;4.12;100.00
70027;BME280;57506;50.092;15.804;2023-12-29T01:31:30;99056.09;;;4.30;100.00
70027;BME280;57506;50.092;15.804;2023-12-29T01:33:58;99042.88;;;4.20;100.00
70027;BME280;57506;50.092;15.804;2023-12-29T01:36:24;99055.78;;;4.33;100.00
70027;BME280;57506;50.092;15.804;2023-12-29T01:38:50;99034.75;;;4.30;100.00
70027;BME280;57506;50.092;15.804;2023-12-29T01:41:15;99027.06;;;4.27;100.00
70027;BME280;57506;50.092;15.804;2023-12-29T01:44:17;99048.34;;;4.45;100.00
70027;BME280;57506;50.092;15.804;2023-12-29T01:46:42;99052.53;;;4.47;100.00
70027;BME280;57506;50.092;15.804;2023-12-29T01:49:08;99049.88;;;4.55;100.00
70027;BME280;57506;50.092;15.804;2023-12-29T01:51:34;99041.56;;;4.58;100.00
70027;BME280;57506;50.092;15.804;2023-12-29T01:53:59;99048.63;;;4.68;100.00
70027;BME280;57506;50.092;15.804;2023-12-29T01:56:25;99041.63;;;4.67;100.00
70027;BME280;57506;50.092;15.804;2023-12-29T01:58:51;99037.66;;;4.71;100.00
70027;BME280;57506;50.092;15.804;2023-12-29T02:01:18;99020.28;;;4.67;100.00
70027;BME280;57506;50.092;15.804;2023-12-29T02:03:44;99012.88;;;4.52;100.00
70027;BME280;57506;50.092;15.804;2023-12-29T02:06:10;99026.78;;;4.72;100.00
70027;BME280;57506;50.092;15.804;2023-12-29T02:08:37;98994.69;;;4.56;100.00
70027;BME280;57506;50.092;15.804;2023-12-29T02:11:07;99023.78;;;4.75;100.00
70027;BME280;57506;50.092;15.804;2023-12-29T02:13:32;99010.59;;;4.74;100.00
70027;BME280;57506;50.092;15.804;2023-12-29T02:16:05;98994.38;;;4.59;100.00
70027;BME280;57506;50.092;15.804;2023-12-29T02:18:34;99008.75;;;4.66;100.00
70027;BME280;57506;50.092;15.804;2023-12-29T02:21:02;99004.41;;;4.65;100.00
70027;BME280;57506;50.092;15.804;2023-12-29T02:23:28;99016.63;;;4.76;100.00
70027;BME280;57506;50.092;15.804;2023-12-29T02:25:57;99011.44;;;4.74;100.00
70027;BME280;57506;50.092;15.804;2023-12-29T02:28:25;98983.22;;;4.72;100.00
70027;BME280;57506;50.092;15.804;2023-12-29T02:30:59;99024.22;;;4.97;100.00
70027;BME280;57506;50.092;15.804;2023-12-29T02:33:28;99027.03;;;4.95;100.00
70027;BME280;57506;50.092;15.804;2023-12-29T02:35:56;99022.69;;;4.94;100.00
70027;BME280;57506;50.092;15.804;2023-12-29T02:38:25;99005.72;;;5.03;100.00
70027;BME280;57506;50.092;15.804;2023-12-29T02:40:55;98977.72;;;5.32;100.00
70027;BME280;57506;50.092;15.804;2023-12-29T02:43:20;98994.44;;;5.99;100.00
70027;BME280;57506;50.092;15.804;2023-12-29T02:45:46;98985.34;;;6.24;100.00
70027;BME280;57506;50.092;15.804;2023-12-29T02:48:11;98986.56;;;6.60;100.00
70027;BME280;57506;50.092;15.804;2023-12-29T02:50:37;99004.19;;;6.86;100.00
70027;BME280;57506;50.092;15.804;2023-12-29T02:53:03;98987.09;;;6.87;100.00
70027;BME280;57506;50.092;15.804;2023-12-29T02:55:29;99017.75;;;7.15;100.00
70027;BME280;57506;50.092;15.804;2023-12-29T02:57:55;98990.66;;;7.10;100.00
70027;BME280;57506;50.092;15.804;2023-12-29T03:00:20;98989.84;;;7.10;100.00
70027;BME280;57506;50.092;15.804;2023-12-29T03:02:46;99011.94;;;7.34;100.00
70027;BME280;57506;50.092;15.804;2023-12-29T03:05:14;99023.63;;;7.42;100.00
70027;BME280;57506;50.092;15.804;2023-12-29T03:07:40;99004.88;;;7.42;100.00
70027;BME280;57506;50.092;15.804;2023-12-29T03:10:07;99016.91;;;7.46;100.00
70027;BME280;57506;50.092;15.804;2023-12-29T03:12:33;98984.25;;;7.42;100.00
70027;BME280;57506;50.092;15.804;2023-12-29T03:28:18;98988.06;;;7.70;100.00
70027;BME280;57506;50.092;15.804;2023-12-29T03:30:44;98989.47;;;7.81;100.00
70027;BME280;57506;50.092;15.804;2023-12-29T03:33:09;98979.38;;;7.83;100.00
70027;BME280;57506;50.092;15.804;2023-12-29T03:35:35;98974.38;;;7.80;100.00
70027;BME280;57506;50.092;15.804;2023-12-29T03:38:00;98948.53;;;7.64;100.00
70027;BME280;57506;50.092;15.804;2023-12-29T03:40:26;98979.97;;;7.93;100.00
70027;BME280;57506;50.092;15.804;2023-12-29T03:42:51;98964.41;;;7.89;100.00
70027;BME280;57506;50.092;15.804;2023-12-29T03:45:17;98988.88;;;7.94;100.00
70027;BME280;57506;50.092;15.804;2023-12-29T03:47:42;98985.25;;;8.01;100.00
70027;BME280;57506;50.092;15.804;2023-12-29T03:50:08;98973.88;;;7.99;100.00
70027;BME280;57506;50.092;15.804;2023-12-29T03:52:33;98960.81;;;7.96;100.00
70027;BME280;57506;50.092;15.804;2023-12-29T03:54:59;98975.81;;;8.05;100.00
70027;BME280;57506;50.092;15.804;2023-12-29T03:57:24;98969.44;;;8.06;100.00
70027;BME280;57506;50.092;15.804;2023-12-29T03:59:50;98942.44;;;8.08;100.00
70027;BME280;57506;50.092;15.804;2023-12-29T04:02:15;98960.09;;;8.17;100.00
70027;BME280;57506;50.092;15.804;2023-12-29T04:04:42;98942.91;;;8.12;100.00
70027;BME280;57506;50.092;15.804;2023-12-29T04:07:08;98957.34;;;8.25;100.00
70027;BME280;57506;50.092;15.804;2023-12-29T04:09:33;98954.84;;;8.24;100.00
70027;BME280;57506;50.092;15.804;2023-12-29T04:11:59;98953.16;;;8.23;100.00
70027;BME280;57506;50.092;15.804;2023-12-29T04:14:24;98927.59;;;8.12;100.00
70027;BME280;57506;50.092;15.804;2023-12-29T04:16:50;98951.22;;;8.31;100.00
70027;BME280;57506;50.092;15.804;2023-12-29T04:19:15;98936.69;;;8.26;100.00
70027;BME280;57506;50.092;15.804;2023-12-29T04:21:41;98956.78;;;8.45;100.00
70027;BME280;57506;50.092;15.804;2023-12-29T04:24:06;98942.16;;;8.32;100.00
70027;BME280;57506;50.092;15.804;2023-12-29T04:26:36;98933.72;;;8.21;100.00
70027;BME280;57506;50.092;15.804;2023-12-29T04:29:02;98947.66;;;8.39;100.00
70027;BME280;57506;50.092;15.804;2023-12-29T04:31:28;98952.06;;;8.47;100.00
70027;BME280;57506;50.092;15.804;2023-12-29T04:33:53;98942.56;;;8.44;100.00
70027;BME280;57506;50.092;15.804;2023-12-29T04:36:19;98930.59;;;8.32;100.00
70027;BME280;57506;50.092;15.804;2023-12-29T04:38:44;98931.59;;;8.16;100.00
70027;BME280;57506;50.092;15.804;2023-12-29T04:41:12;98936.78;;;8.18;100.00
70027;BME280;57506;50.092;15.804;2023-12-29T04:43:38;98913.91;;;7.92;100.00
70027;BME280;57506;50.092;15.804;2023-12-29T04:46:04;98940.19;;;7.97;100.00
70027;BME280;57506;50.092;15.804;2023-12-29T04:48:29;98922.41;;;7.81;100.00
70027;BME280;57506;50.092;15.804;2023-12-29T04:50:55;98912.31;;;7.83;100.00
70027;BME280;57506;50.092;15.804;2023-12-29T04:53:20;98917.78;;;7.75;100.00
70027;BME280;57506;50.092;15.804;2023-12-29T04:55:46;98921.84;;;7.71;100.00
70027;BME280;57506;50.092;15.804;2023-12-29T04:58:11;98922.09;;;7.61;100.00
70027;BME280;57506;50.092;15.804;2023-12-29T05:00:37;98939.88;;;7.62;100.00
70027;BME280;57506;50.092;15.804;2023-12-29T05:03:02;98928.94;;;7.64;100.00
70027;BME280;57506;50.092;15.804;2023-12-29T05:05:28;98924.97;;;7.60;100.00
70027;BME280;57506;50.092;15.804;2023-12-29T05:07:53;98922.53;;;7.65;100.00
70027;BME280;57506;50.092;15.804;2023-12-29T05:10:19;98909.94;;;7.51;100.00
70027;BME280;57506;50.092;15.804;2023-12-29T05:12:45;98912.72;;;7.43;100.00
70027;BME280;57506;50.092;15.804;2023-12-29T05:15:10;98921.69;;;7.50;100.00
70027;BME280;57506;50.092;15.804;2023-12-29T05:17:36;98904.00;;;7.41;100.00
70027;BME280;57506;50.092;15.804;2023-12-29T05:20:02;98912.91;;;7.56;100.00
70027;BME280;57506;50.092;15.804;2023-12-29T05:22:28;98929.00;;;7.56;100.00
70027;BME280;57506;50.092;15.804;2023-12-29T05:24:54;98899.22;;;7.51;100.00
70027;BME280;57506;50.092;15.804;2023-12-29T05:27:23;98885.78;;;7.36;100.00
70027;BME280;57506;50.092;15.804;2023-12-29T05:29:48;98919.44;;;7.38;100.00
70027;BME280;57506;50.092;15.804;2023-12-29T05:32:14;98920.44;;;7.37;100.00
70027;BME280;57506;50.092;15.804;2023-12-29T05:34:39;98917.78;;;7.37;100.00
70027;BME280;57506;50.092;15.804;2023-12-29T05:37:05;98932.59;;;7.48;100.00
70027;BME280;57506;50.092;15.804;2023-12-29T05:39:30;98940.94;;;7.53;100.00
70027;BME280;57506;50.092;15.804;2023-12-29T05:41:56;98938.72;;;7.57;100.00
70027;BME280;57506;50.092;15.804;2023-12-29T05:44:22;98931.38;;;7.51;100.00
70027;BME280;57506;50.092;15.804;2023-12-29T05:46:47;98937.41;;;7.53;100.00
70027;BME280;57506;50.092;15.804;2023-12-29T05:49:13;98928.13;;;7.41;100.00
70027;BME280;57506;50.092;15.804;2023-12-29T05:51:39;98879.00;;;7.02;100.00
70027;BME280;57506;50.092;15.804;2023-12-29T05:54:04;98930.25;;;7.30;100.00
70027;BME280;57506;50.092;15.804;2023-12-29T05:56:30;98949.94;;;7.37;100.00
70027;BME280;57506;50.092;15.804;2023-12-29T05:58:56;98942.38;;;7.41;100.00
70027;BME280;57506;50.092;15.804;2023-12-29T06:01:22;98922.72;;;7.26;100.00
70027;BME280;57506;50.092;15.804;2023-12-29T06:03:47;98918.56;;;7.23;100.00
70027;BME280;57506;50.092;15.804;2023-12-29T06:06:13;98917.97;;;7.13;100.00
70027;BME280;57506;50.092;15.804;2023-12-29T06:08:39;98948.56;;;7.19;100.00
70027;BME280;57506;50.092;15.804;2023-12-29T06:11:04;98939.81;;;7.25;100.00
70027;BME280;57506;50.092;15.804;2023-12-29T06:13:30;98948.06;;;7.15;100.00
70027;BME280;57506;50.092;15.804;2023-12-29T06:15:55;98939.34;;;7.21;100.00
70027;BME280;57506;50.092;15.804;2023-12-29T06:18:21;98921.19;;;7.09;100.00
70027;BME280;57506;50.092;15.804;2023-12-29T06:20:46;98943.03;;;7.20;100.00
70027;BME280;57506;50.092;15.804;2023-12-29T06:23:12;98943.50;;;7.24;100.00
70027;BME280;57506;50.092;15.804;2023-12-29T06:25:38;98942.03;;;7.21;100.00
70027;BME280;57506;50.092;15.804;2023-12-29T06:28:05;98933.31;;;7.19;100.00
70027;BME280;57506;50.092;15.804;2023-12-29T06:30:31;98936.91;;;7.12;100.00
70027;BME280;57506;50.092;15.804;2023-12-29T06:32:57;98934.78;;;6.99;100.00
70027;BME280;57506;50.092;15.804;2023-12-29T06:35:23;98944.56;;;6.92;100.00
70027;BME280;57506;50.092;15.804;2023-12-29T06:37:48;98931.19;;;6.84;100.00
70027;BME280;57506;50.092;15.804;2023-12-29T06:40:15;98935.63;;;6.77;100.00
70027;BME280;57506;50.092;15.804;2023-12-29T06:42:41;98939.41;;;6.82;100.00
70027;BME280;57506;50.092;15.804;2023-12-29T06:45:07;98952.09;;;6.88;100.00
70027;BME280;57506;50.092;15.804;2023-12-29T06:47:33;98933.25;;;6.82;100.00
70027;BME280;57506;50.092;15.804;2023-12-29T06:49:59;98951.94;;;6.90;100.00
70027;BME280;57506;50.092;15.804;2023-12-29T06:52:24;98938.63;;;6.74;100.00
70027;BME280;57506;50.092;15.804;2023-12-29T06:54:51;98943.56;;;6.54;100.00
70027;BME280;57506;50.092;15.804;2023-12-29T06:57:16;98948.16;;;6.37;100.00
70027;BME280;57506;50.092;15.804;2023-12-29T06:59:42;98966.91;;;6.37;100.00
70027;BME280;57506;50.092;15.804;2023-12-29T07:02:07;98956.91;;;6.31;100.00
70027;BME280;57506;50.092;15.804;2023-12-29T07:04:33;98932.16;;;6.21;100.00
70027;BME280;57506;50.092;15.804;2023-12-29T07:07:00;98951.06;;;6.27;100.00
70027;BME280;57506;50.092;15.804;2023-12-29T07:09:26;98958.25;;;6.27;100.00
70027;BME280;57506;50.092;15.804;2023-12-29T07:11:51;98937.50;;;6.21;100.00
70027;BME280;57506;50.092;15.804;2023-12-29T07:14:17;98953.03;;;6.33;100.00
70027;BME280;57506;50.092;15.804;2023-12-29T07:16:43;98954.56;;;6.28;100.00
70027;BME280;57506;50.092;15.804;2023-12-29T07:19:09;98943.84;;;6.28;100.00
70027;BME280;57506;50.092;15.804;2023-12-29T07:21:35;98956.00;;;6.47;100.00
70027;BME280;57506;50.092;15.804;2023-12-29T07:24:00;98928.91;;;6.42;100.00
70027;BME280;57506;50.092;15.804;2023-12-29T07:26:26;98935.06;;;6.50;100.00
70027;BME280;57506;50.092;15.804;2023-12-29T07:28:52;98933.75;;;6.46;100.00
70027;BME280;57506;50.092;15.804;2023-12-29T07:31:20;98951.44;;;6.55;100.00
70027;BME280;57506;50.092;15.804;2023-12-29T07:33:46;98957.78;;;6.54;100.00
70027;BME280;57506;50.092;15.804;2023-12-29T07:36:12;98957.69;;;6.48;100.00
70027;BME280;57506;50.092;15.804;2023-12-29T07:38:38;98959.53;;;6.47;100.00
70027;BME280;57506;50.092;15.804;2023-12-29T07:41:03;98948.16;;;6.37;100.00
70027;BME280;57506;50.092;15.804;2023-12-29T07:43:29;98959.16;;;6.50;100.00
70027;BME280;57506;50.092;15.804;2023-12-29T07:45:54;98958.81;;;6.53;100.00
70027;BME280;57506;50.092;15.804;2023-12-29T07:48:20;98965.09;;;6.68;100.00
70027;BME280;57506;50.092;15.804;2023-12-29T07:50:45;98929.69;;;6.58;100.00
70027;BME280;57506;50.092;15.804;2023-12-29T07:53:11;98956.78;;;6.94;100.00
70027;BME280;57506;50.092;15.804;2023-12-29T07:55:38;98956.84;;;7.09;100.00
70027;BME280;57506;50.092;15.804;2023-12-29T07:58:05;98959.72;;;7.30;100.00
70027;BME280;57506;50.092;15.804;2023-12-29T08:00:30;98967.50;;;7.63;100.00
70027;BME280;57506;50.092;15.804;2023-12-29T08:02:56;98965.06;;;7.91;100.00
70027;BME280;57506;50.092;15.804;2023-12-29T08:05:21;98963.25;;;8.06;100.00
70027;BME280;57506;50.092;15.804;2023-12-29T08:07:47;98965.38;;;8.11;100.00
70027;BME280;57506;50.092;15.804;2023-12-29T08:10:12;98976.31;;;8.09;100.00
70027;BME280;57506;50.092;15.804;2023-12-29T08:12:38;98962.66;;;7.96;100.00
70027;BME280;57506;50.092;15.804;2023-12-29T08:15:04;98983.59;;;8.00;100.00
70027;BME280;57506;50.092;15.804;2023-12-29T08:17:29;98976.28;;;7.94;100.00
70027;BME280;57506;50.092;15.804;2023-12-29T08:19:56;98963.41;;;7.90;100.00
70027;BME280;57506;50.092;15.804;2023-12-29T08:22:22;98953.56;;;7.82;100.00
70027;BME280;57506;50.092;15.804;2023-12-29T08:24:47;98965.16;;;7.97;100.00
70027;BME280;57506;50.092;15.804;2023-12-29T08:27:13;98951.84;;;7.89;100.00
70027;BME280;57506;50.092;15.804;2023-12-29T08:29:39;98947.66;;;7.87;100.00
70027;BME280;57506;50.092;15.804;2023-12-29T08:32:05;98966.66;;;8.00;100.00
70027;BME280;57506;50.092;15.804;2023-12-29T08:34:31;98966.94;;;8.05;100.00
70027;BME280;57506;50.092;15.804;2023-12-29T08:36:57;98956.50;;;7.95;100.00
70027;BME280;57506;50.092;15.804;2023-12-29T08:39:23;98950.28;;;7.95;100.00
70027;BME280;57506;50.092;15.804;2023-12-29T08:41:49;98979.00;;;8.09;100.00
70027;BME280;57506;50.092;15.804;2023-12-29T08:44:15;98948.53;;;8.02;100.00
70027;BME280;57506;50.092;15.804;2023-12-29T08:46:41;98961.22;;;8.08;100.00
70027;BME280;57506;50.092;15.804;2023-12-29T08:49:07;98964.72;;;8.08;100.00
70027;BME280;57506;50.092;15.804;2023-12-29T08:51:33;98974.94;;;8.28;100.00
70027;BME280;57506;50.092;15.804;2023-12-29T08:53:58;98955.50;;;8.26;100.00
70027;BME280;57506;50.092;15.804;2023-12-29T08:56:24;98982.38;;;8.40;100.00
70027;BME280;57506;50.092;15.804;2023-12-29T08:58:50;98962.44;;;8.35;100.00
70027;BME280;57506;50.092;15.804;2023-12-29T09:01:16;98966.81;;;8.36;100.00
70027;BME280;57506;50.092;15.804;2023-12-29T09:03:41;98958.28;;;8.32;100.00
70027;BME280;57506;50.092;15.804;2023-12-29T09:06:08;98979.50;;;8.42;100.00
70027;BME280;57506;50.092;15.804;2023-12-29T09:08:35;98977.47;;;8.44;100.00
70027;BME280;57506;50.092;15.804;2023-12-29T09:11:01;98979.09;;;8.45;99.89
70027;BME280;57506;50.092;15.804;2023-12-29T09:13:28;99014.22;;;8.58;100.00
70027;BME280;57506;50.092;15.804;2023-12-29T09:15:56;98984.88;;;8.42;99.37
70027;BME280;57506;50.092;15.804;2023-12-29T09:18:22;99000.50;;;8.53;99.18
70027;BME280;57506;50.092;15.804;2023-12-29T09:20:48;99019.84;;;8.63;99.06
70027;BME280;57506;50.092;15.804;2023-12-29T09:23:13;99003.66;;;8.57;98.57
70027;BME280;57506;50.092;15.804;2023-12-29T09:25:40;98993.28;;;8.54;99.55
70027;BME280;57506;50.092;15.804;2023-12-29T09:28:06;99007.84;;;8.74;97.91
70027;BME280;57506;50.092;15.804;2023-12-29T09:30:31;99021.63;;;8.86;98.19
70027;BME280;57506;50.092;15.804;2023-12-29T09:32:57;99019.28;;;8.83;97.37
70027;BME280;57506;50.092;15.804;2023-12-29T09:35:22;99020.13;;;8.83;96.29
70027;BME280;57506;50.092;15.804;2023-12-29T09:37:48;99026.88;;;8.94;95.89
70027;BME280;57506;50.092;15.804;2023-12-29T09:40:14;99017.53;;;9.04;95.85
70027;BME280;57506;50.092;15.804;2023-12-29T09:42:42;98994.72;;;9.00;94.80
70027;BME280;57506;50.092;15.804;2023-12-29T09:45:11;99010.91;;;9.22;94.55
70027;BME280;57506;50.092;15.804;2023-12-29T09:47:42;99015.31;;;9.29;92.37
70027;BME280;57506;50.092;15.804;2023-12-29T09:50:12;99006.59;;;9.27;92.84
70027;BME280;57506;50.092;15.804;2023-12-29T09:52:39;99010.84;;;9.36;92.15
70027;BME280;57506;50.092;15.804;2023-12-29T09:55:08;99008.09;;;9.51;91.75
70027;BME280;57506;50.092;15.804;2023-12-29T09:57:38;99004.78;;;9.49;92.26
70027;BME280;57506;50.092;15.804;2023-12-29T10:00:05;98993.25;;;9.55;89.46
70027;BME280;57506;50.092;15.804;2023-12-29T10:02:31;98997.28;;;9.66;88.38
70027;BME280;57506;50.092;15.804;2023-12-29T10:04:56;99000.44;;;9.69;89.86
70027;BME280;57506;50.092;15.804;2023-12-29T10:07:26;98989.13;;;9.59;90.27
70027;BME280;57506;50.092;15.804;2023-12-29T10:09:55;99001.91;;;9.72;89.48
70027;BME280;57506;50.092;15.804;2023-12-29T10:12:21;99012.06;;;9.76;89.60
70027;BME280;57506;50.092;15.804;2023-12-29T10:20:44;99013.16;;;10.03;88.20
70027;BME280;57506;50.092;15.804;2023-12-29T10:23:45;99014.41;;;10.07;86.48
70027;BME280;57506;50.092;15.804;2023-12-29T10:26:13;99006.59;;;10.12;86.29
70027;BME280;57506;50.092;15.804;2023-12-29T10:28:40;98985.88;;;10.13;84.47
70027;BME280;57506;50.092;15.804;2023-12-29T10:31:06;99008.75;;;10.24;85.22
70027;BME280;57506;50.092;15.804;2023-12-29T10:33:34;98995.72;;;10.27;84.41
70027;BME280;57506;50.092;15.804;2023-12-29T10:36:02;99009.66;;;10.31;84.96
70027;BME280;57506;50.092;15.804;2023-12-29T10:38:31;98985.56;;;10.23;83.40
70027;BME280;57506;50.092;15.804;2023-12-29T10:41:14;98993.03;;;10.27;83.28
70027;BME280;57506;50.092;15.804;2023-12-29T10:43:41;98991.75;;;10.23;85.34
70027;BME280;57506;50.092;15.804;2023-12-29T10:46:08;98996.81;;;10.33;85.68
70027;BME280;57506;50.092;15.804;2023-12-29T10:48:34;98991.47;;;10.39;84.26
70027;BME280;57506;50.092;15.804;2023-12-29T10:51:00;98970.34;;;10.43;84.46
70027;BME280;57506;50.092;15.804;2023-12-29T10:53:29;98972.13;;;10.64;84.50
70027;BME280;57506;50.092;15.804;2023-12-29T10:55:55;98963.59;;;10.60;82.05
70027;BME280;57506;50.092;15.804;2023-12-29T10:58:24;98957.66;;;10.71;83.92
70027;BME280;57506;50.092;15.804;2023-12-29T11:00:53;98952.69;;;10.75;83.51
70027;BME280;57506;50.092;15.804;2023-12-29T11:03:19;98955.81;;;10.78;82.92
70027;BME280;57506;50.092;15.804;2023-12-29T11:05:45;98947.72;;;10.78;81.04
70027;BME280;57506;50.092;15.804;2023-12-29T11:08:21;98920.53;;;10.67;81.73
70027;BME280;57506;50.092;15.804;2023-12-29T11:10:50;98955.44;;;10.81;82.06
70027;BME280;57506;50.092;15.804;2023-12-29T11:13:16;98939.41;;;10.73;80.27
70027;BME280;57506;50.092;15.804;2023-12-29T11:15:45;98935.09;;;10.79;80.78
70027;BME280;57506;50.092;15.804;2023-12-29T11:18:17;98927.00;;;10.79;79.69
70027;BME280;57506;50.092;15.804;2023-12-29T11:20:44;98929.31;;;10.88;79.89
70027;BME280;57506;50.092;15.804;2023-12-29T11:23:10;98923.72;;;10.83;81.50
70027;BME280;57506;50.092;15.804;2023-12-29T11:25:40;98914.13;;;10.74;80.06
70027;BME280;57506;50.092;15.804;2023-12-29T11:28:10;98917.06;;;10.79;79.81
70027;BME280;57506;50.092;15.804;2023-12-29T11:30:39;98920.59;;;10.80;81.39
70027;BME280;57506;50.092;15.804;2023-12-29T11:33:41;98937.81;;;10.85;82.27
70027;BME280;57506;50.092;15.804;2023-12-29T11:36:20;98939.66;;;10.78;82.29
70027;BME280;57506;50.092;15.804;2023-12-29T11:38:59;98930.72;;;10.78;80.28
70027;BME280;57506;50.092;15.804;2023-12-29T11:44:27;98898.56;;;10.70;79.45
70027;BME280;57506;50.092;15.804;2023-12-29T11:46:53;98930.34;;;10.81;80.13
70027;BME280;57506;50.092;15.804;2023-12-29T11:49:19;98922.69;;;10.84;78.31
70027;BME280;57506;50.092;15.804;2023-12-29T11:51:49;98928.72;;;10.86;77.66
70027;BME280;57506;50.092;15.804;2023-12-29T11:54:25;98923.06;;;10.81;79.25
70027;BME280;57506;50.092;15.804;2023-12-29T11:56:57;98920.81;;;10.85;79.89
70027;BME280;57506;50.092;15.804;2023-12-29T11:59:23;98926.25;;;10.98;79.44
70027;BME280;57506;50.092;15.804;2023-12-29T12:01:54;98918.59;;;11.08;78.98
70027;BME280;57506;50.092;15.804;2023-12-29T12:04:40;98918.84;;;11.20;78.62
70027;BME280;57506;50.092;15.804;2023-12-29T12:07:08;98922.78;;;11.24;78.94
70027;BME280;57506;50.092;15.804;2023-12-29T12:09:35;98902.03;;;11.31;78.72
70027;BME280;57506;50.092;15.804;2023-12-29T12:12:02;98910.16;;;11.44;78.10
70027;BME280;57506;50.092;15.804;2023-12-29T12:14:49;98912.88;;;11.51;79.42
70027;BME280;57506;50.092;15.804;2023-12-29T12:17:33;98898.31;;;11.45;78.96
70027;BME280;57506;50.092;15.804;2023-12-29T12:20:06;98905.78;;;11.56;77.99
70027;BME280;57506;50.092;15.804;2023-12-29T12:22:34;98900.59;;;11.55;77.98
70027;BME280;57506;50.092;15.804;2023-12-29T12:25:02;98881.06;;;11.40;76.98
70027;BME280;57506;50.092;15.804;2023-12-29T12:27:30;98878.59;;;11.38;76.90
70027;BME280;57506;50.092;15.804;2023-12-29T12:29:58;98857.00;;;11.32;78.67
70027;BME280;57506;50.092;15.804;2023-12-29T12:32:26;98887.13;;;11.48;77.88
70027;BME280;57506;50.092;15.804;2023-12-29T12:34:52;98864.91;;;11.20;74.92
70027;BME280;57506;50.092;15.804;2023-12-29T12:37:28;98865.06;;;11.05;76.97
70027;BME280;57506;50.092;15.804;2023-12-29T12:39:54;98885.81;;;11.11;78.10
70027;BME280;57506;50.092;15.804;2023-12-29T12:42:21;98888.09;;;11.01;78.05
70027;BME280;57506;50.092;15.804;2023-12-29T12:47:18;98883.09;;;10.98;77.97
70027;BME280;57506;50.092;15.804;2023-12-29T12:49:48;98853.00;;;10.81;76.62
70027;BME280;57506;50.092;15.804;2023-12-29T12:52:14;98886.44;;;11.07;75.25
70027;BME280;57506;50.092;15.804;2023-12-29T12:54:40;98861.09;;;10.95;75.70
70027;BME280;57506;50.092;15.804;2023-12-29T12:57:06;98860.22;;;10.74;77.95
70027;BME280;57506;50.092;15.804;2023-12-29T12:59:32;98873.13;;;10.85;77.15
70027;BME280;57506;50.092;15.804;2023-12-29T13:01:58;98825.75;;;10.57;78.83
70027;BME280;57506;50.092;15.804;2023-12-29T13:04:24;98860.41;;;10.66;77.77
70027;BME280;57506;50.092;15.804;2023-12-29T13:06:50;98875.19;;;10.83;75.73
70027;BME280;57506;50.092;15.804;2023-12-29T13:09:17;98880.97;;;10.80;77.90
70027;BME280;57506;50.092;15.804;2023-12-29T13:11:44;98854.44;;;10.71;77.26
70027;BME280;57506;50.092;15.804;2023-12-29T13:14:22;98851.94;;;10.76;77.20